Latest Weather Observations for Cape Leeuwin

IDW60801

Issued at 3:03 pm WST Saturday 28 January 2023 (issued every 10 minutes, with the page automatically refreshed every 10 minutes)

About weather observations | Map of weather stations | Latest weather observations for WA | Other Formats
Station Details ID: 009518 Name: CAPE LEEUWIN Lat: -34.37 Lon: 115.14 Height: 13.0 m
Data from the previous 72 hours. | See also: Recent months at Cape Leeuwin
Date/Time
WST
Temp
°C
App
Temp
°C
Dew
Point
°C
Rel
Hum
%
Delta-T
°C
Wind Press
QNH
hPa
Press
MSL
hPa
Rain since
9am
mm
Dir  Spd
km/h
Gust
km/h
Spd
kts
Gust
kts
28/03:00pm 21.8 17.2 11.2 51 5.9 S 26 35 14 19 1013.2 1013.1 0.0
28/02:30pm 22.1 17.3 10.3 47 6.4 S 26 33 14 18 1013.3 1013.2 0.0
28/02:00pm 22.0 17.5 9.9 46 6.6 SSE 24 32 13 17 1013.5 1013.4 0.0
28/01:30pm 21.8 17.6 9.7 46 6.5 SSE 22 32 12 17 1013.5 1013.4 0.0
28/01:00pm 21.8 17.7 10.0 47 6.4 SSE 22 28 12 15 1013.7 1013.6 0.0
28/12:30pm 21.4 17.1 9.3 46 6.5 SSE 22 32 12 17 1014.0 1013.9 0.0
28/12:00pm 20.1 16.8 10.8 55 5.1 ESE 19 26 10 14 1014.4 1014.3 0.0
28/11:30am 20.0 16.4 10.4 54 5.2 ESE 20 28 11 15 1014.7 1014.6 0.0
28/11:00am 20.3 16.7 10.4 53 5.4 SE 20 26 11 14 1014.9 1014.8 0.0
28/10:30am 19.3 15.5 9.2 52 5.3 ESE 19 24 10 13 1015.2 1015.1 0.0
28/10:00am 18.9 15.0 8.8 52 5.3 ESE 19 24 10 13 1015.3 1015.2 0.0
28/09:30am 18.3 13.6 9.1 55 4.8 E 24 28 13 15 1015.1 1015.0 0.0
28/09:00am 18.4 14.7 10.3 59 4.3 E 20 28 11 15 1015.2 1015.1 0.0
28/08:30am 17.7 15.0 10.3 62 3.9 ENE 15 19 8 10 1015.5 1015.4 0.0
28/08:00am 16.7 13.0 9.4 62 3.8 ENE 19 24 10 13 1015.5 1015.4 0.0
28/07:30am 16.3 12.6 9.5 64 3.5 ENE 19 24 10 13 1015.4 1015.3 0.0
28/07:00am 15.8 12.5 9.5 66 3.3 NE 17 20 9 11 1015.4 1015.3 0.0
28/06:30am 15.0 12.0 9.1 68 3.0 NE 15 20 8 11 1015.0 1014.9 0.0
28/06:00am 14.5 10.7 9.1 70 2.8 NE 19 24 10 13 1014.8 1014.7 0.0
28/05:30am 14.6 11.0 10.0 74 2.4 NE 19 24 10 13 1014.5 1014.4 0.0
28/05:00am 15.0 12.3 10.4 74 2.4 NE 15 20 8 11 1014.3 1014.2 0.0
28/04:30am 15.9 11.8 10.0 68 3.1 E 22 32 12 17 1014.2 1014.1 0.0
28/04:00am 17.5 12.9 9.7 60 4.1 SE 24 32 13 17 1014.1 1014.0 0.0
28/03:30am 17.6 13.1 10.2 62 3.9 SE 24 35 13 19 1014.1 1014.0 0.0
28/03:00am 17.5 13.5 10.4 63 3.8 SE 22 30 12 16 1013.8 1013.7 0.0
28/02:30am 17.4 13.4 10.3 63 3.8 SE 22 30 12 16 1014.0 1013.9 0.0
28/02:00am 17.4 13.4 10.3 63 3.8 SE 22 32 12 17 1013.8 1013.7 0.0
28/01:30am 17.4 13.3 10.1 62 3.9 SE 22 28 12 15 1013.8 1013.7 0.0
28/01:00am 17.2 12.6 9.6 61 4.0 SE 24 32 13 17 1014.1 1014.0 0.0
28/12:30am 17.2 12.7 10.1 63 3.8 SE 24 32 13 17 1014.1 1014.0 0.0
28/12:00am 17.1 12.1 9.5 61 4.0 SE 26 33 14 18 1014.1 1014.0 0.0
 
Date/Time
WST
Temp
°C
App
Temp
°C
Dew
Point
°C
Rel
Hum
%
Delta-T
°C
Wind Press
QNH
hPa
Press
MSL
hPa
Rain since
9am
mm
Dir  Spd
km/h
Gust
km/h
Spd
kts
Gust
kts
27/11:30pm 17.2 12.3 9.9 62 3.8 SE 26 32 14 17 1014.2 1014.1 0.0
27/11:00pm 17.1 12.5 9.8 62 3.8 SE 24 32 13 17 1014.3 1014.2 0.0
27/10:30pm 17.0 12.5 10.1 64 3.6 SE 24 32 13 17 1014.3 1014.2 0.0
27/10:00pm 17.0 11.8 10.1 64 3.6 SE 28 35 15 19 1014.3 1014.2 0.0
27/09:30pm 17.1 11.5 10.0 63 3.7 SE 30 39 16 21 1014.4 1014.3 0.0
27/09:00pm 17.3 11.5 10.9 66 3.4 SSE 32 41 17 22 1014.4 1014.3 0.0
27/08:30pm 17.6 11.7 11.2 66 3.5 SSE 33 43 18 23 1014.4 1014.3 0.0
27/08:00pm 17.8 12.0 11.6 67 3.4 SE 33 41 18 22 1014.2 1014.1 0.0
27/07:30pm 17.9 12.4 11.9 68 3.3 SE 32 39 17 21 1014.1 1014.0 0.0
27/07:00pm 17.9 12.7 11.5 66 3.5 SE 30 37 16 20 1014.0 1013.9 0.0
27/06:30pm 18.1 13.2 11.4 65 3.7 SE 28 37 15 20 1013.8 1013.7 0.0
27/06:00pm 18.6 13.3 9.9 57 4.6 SSE 28 37 15 20 1013.8 1013.7 0.0
27/05:30pm 18.8 14.2 10.9 60 4.3 SE 26 35 14 19 1013.5 1013.4 0.0
27/05:00pm 19.8 14.5 9.7 52 5.4 SSE 28 37 15 20 1013.5 1013.4 0.0
27/04:30pm 19.7 13.9 9.6 52 5.4 SSE 30 37 16 20 1013.3 1013.2 0.0
27/04:00pm 20.2 14.7 9.2 49 5.8 SSE 28 37 15 20 1013.4 1013.3 0.0
27/03:30pm 20.8 15.5 10.0 50 5.8 S 28 33 15 18 1013.5 1013.4 0.0
27/03:00pm 20.8 15.6 10.3 51 5.7 S 28 37 15 20 1013.4 1013.3 0.0
27/02:30pm 21.2 16.2 11.0 52 5.6 S 28 39 15 21 1013.5 1013.4 0.0
27/02:00pm 21.8 16.5 10.0 47 6.4 S 28 37 15 20 1013.5 1013.4 0.0
27/01:30pm 20.9 16.1 10.4 51 5.7 SSE 26 32 14 17 1013.6 1013.5 0.0
27/01:00pm 21.3 16.5 10.2 49 6.0 SSE 26 35 14 19 1013.3 1013.2 0.0
27/12:30pm 21.4 17.0 10.3 49 6.0 SSE 24 32 13 17 1013.3 1013.2 0.0
27/12:00pm 20.9 16.6 10.7 52 5.6 SSE 24 33 13 18 1013.2 1013.1 0.0
27/11:30am 21.6 17.3 10.7 50 6.0 S 24 33 13 18 1013.3 1013.2 0.0
27/11:00am 19.7 15.2 10.1 54 5.2 S 24 32 13 17 1013.2 1013.1 0.0
27/10:30am 18.9 13.8 10.7 59 4.4 S 28 35 15 19 1013.5 1013.4 0.0
27/10:00am 19.5 14.1 12.8 65 3.8 S 33 43 18 23 1013.5 1013.4 0.0
27/09:30am 18.6 13.2 12.8 69 3.3 SSW 33 41 18 22 1013.5 1013.4 0.0
27/09:00am 18.3 12.9 13.8 75 2.6 SSW 35 44 19 24 1013.2 1013.1 0.6
27/08:30am 18.1 12.8 14.2 78 2.2 S 35 44 19 24 1012.8 1012.7 0.6
27/08:00am 17.8 12.7 14.9 83 1.7 SSW 35 46 19 25 1012.5 1012.4 0.6
27/07:30am 17.5 12.7 15.7 89 1.1 SSW 35 44 19 24 1012.1 1012.0 0.6
27/07:00am 17.9 14.0 16.4 91 0.9 SSW 32 44 17 24 1012.0 1011.9 0.6
27/06:30am 18.1 14.8 17.1 94 0.6 S 30 39 16 21 1011.5 1011.4 0.6
27/06:00am 17.9 13.6 16.8 93 0.7 SSW 35 46 19 25 1010.9 1010.8 0.4
27/05:30am 18.7 15.7 16.9 89 1.1 SW 28 35 15 19 1010.5 1010.4 0.4
27/05:00am 20.0 18.4 16.4 80 2.2 W 20 24 11 13 1010.0 1009.9 0.0
27/04:30am 20.1 17.1 16.9 82 1.9 WSW 28 32 15 17 1010.1 1010.0 0.0
27/04:00am 20.0 17.7 16.6 81 2.1 WSW 24 30 13 16 1010.2 1010.1 0.0
27/03:30am 19.9 17.5 16.3 80 2.2 WSW 24 28 13 15 1009.8 1009.7 0.0
27/03:00am 19.8 17.7 16.3 80 2.1 WSW 22 26 12 14 1009.9 1009.8 0.0
27/02:30am 19.8 17.4 16.3 80 2.1 WSW 24 26 13 14 1009.9 1009.8 0.0
27/02:00am 19.8 17.7 16.3 80 2.1 WSW 22 24 12 13 1010.3 1010.2 0.0
27/01:30am 19.7 17.5 16.0 79 2.2 WSW 22 26 12 14 1010.6 1010.5 0.0
27/01:00am 19.5 16.9 15.8 79 2.2 WSW 24 28 13 15 1010.8 1010.7 0.0
27/12:30am 19.4 17.1 15.7 79 2.2 WSW 22 26 12 14 1011.0 1010.9 0.0
27/12:00am 19.4 18.6 16.1 81 2.0 WSW 15 20 8 11 1011.2 1011.1 0.0
 
Date/Time
WST
Temp
°C
App
Temp
°C
Dew
Point
°C
Rel
Hum
%
Delta-T
°C
Wind Press
QNH
hPa
Press
MSL
hPa
Rain since
9am
mm
Dir  Spd
km/h
Gust
km/h
Spd
kts
Gust
kts
26/11:30pm 19.1 18.4 15.4 79 2.2 WSW 13 17 7 9 1011.4 1011.3 0.0
26/11:00pm 19.1 18.3 15.2 78 2.3 WSW 13 17 7 9 1012.0 1011.9 0.0
26/10:30pm 19.1 18.0 15.2 78 2.3 SW 15 20 8 11 1012.3 1012.2 0.0
26/10:00pm 19.1 16.2 15.0 77 2.4 SW 24 32 13 17 1012.5 1012.4 0.0
26/09:30pm 18.8 17.2 14.9 78 2.3 SW 17 20 9 11 1012.4 1012.3 0.0
26/09:00pm 18.6 16.8 14.5 77 2.4 SSW 17 20 9 11 1012.7 1012.6 0.0
26/08:30pm 18.6 16.3 14.1 75 2.6 SW 19 22 10 12 1012.4 1012.3 0.0
26/08:00pm 18.5 16.6 14.2 76 2.5 SSW 17 20 9 11 1012.4 1012.3 0.0
26/07:30pm 18.7 16.9 14.4 76 2.5 SSW 17 20 9 11 1012.1 1012.0 0.0
26/07:00pm 19.0 16.8 14.3 74 2.7 SSW 19 24 10 13 1012.3 1012.2 0.0
26/06:30pm 19.6 17.3 14.6 73 2.9 SSW 20 26 11 14 1012.6 1012.5 0.0
26/06:00pm 20.8 18.9 15.1 70 3.4 SSW 19 22 10 12 1012.6 1012.5 0.0
26/05:30pm 20.7 18.9 14.4 67 3.7 SSW 17 24 9 13 1012.3 1012.2 0.0
26/05:00pm 21.6 19.4 15.0 66 3.9 SSW 20 26 11 14 1012.5 1012.4 0.0
26/04:30pm 22.3 20.2 15.2 64 4.2 SSW 20 24 11 13 1012.7 1012.6 0.0
26/04:00pm 21.9 19.7 14.3 62 4.4 SSW 19 22 10 12 1012.8 1012.7 0.0
26/03:30pm 22.9 20.9 15.0 61 4.7 SSW 19 22 10 12 1012.8 1012.7 0.0
26/03:00pm 23.3 21.2 14.8 59 5.0 SW 19 24 10 13 1012.9 1012.8 0.0
26/02:30pm 22.6 20.3 14.7 61 4.7 SW 20 24 11 13 1013.1 1013.0 0.0
26/02:00pm 22.7 20.5 15.0 61 4.6 SW 20 28 11 15 1013.1 1013.0 0.0
26/01:30pm 22.9 20.9 15.0 61 4.7 SW 19 22 10 12 1013.3 1013.2 0.0
26/01:00pm 22.4 21.1 14.8 62 4.5 SW 15 19 8 10 1013.4 1013.3 0.0
26/12:30pm 22.3 20.5 14.4 61 4.6 SW 17 20 9 11 1013.8 1013.7 0.0
26/12:00pm 22.0 20.1 14.1 61 4.6 SW 17 24 9 13 1014.4 1014.3 0.0
26/11:30am 21.6 20.0 13.8 61 4.5 WSW 15 20 8 11 1014.4 1014.3 0.0
26/11:00am 21.6 20.0 13.8 61 4.5 WSW 15 17 8 9 1014.6 1014.5 0.0
26/10:30am 21.7 20.5 14.1 62 4.4 SW 13 17 7 9 1015.1 1015.0 0.0
26/10:00am 21.0 19.9 13.2 61 4.5 WSW 11 15 6 8 1015.2 1015.1 0.0
26/09:30am 20.8 20.0 13.0 61 4.4 SW 9 13 5 7 1015.2 1015.1 0.0
26/09:00am 20.6 19.5 13.1 62 4.3 E 11 13 6 7 1015.2 1015.1 0.0
26/08:30am 21.0 20.8 12.9 60 4.6 S 6 9 3 5 1015.3 1015.2 0.0
26/08:00am 19.5 17.1 12.5 64 3.9 ENE 17 20 9 11 1015.6 1015.5 0.0
26/07:30am 18.6 15.8 12.6 68 3.4 ENE 19 24 10 13 1015.8 1015.7 0.0
26/07:00am 18.1 15.6 12.3 69 3.2 E 17 20 9 11 1016.1 1016.0 0.0
26/06:30am 17.7 15.2 12.4 71 2.9 ENE 17 20 9 11 1016.3 1016.2 0.0
26/06:00am 17.2 14.2 12.1 72 2.8 E 19 24 10 13 1016.4 1016.3 0.0
26/05:30am 17.2 13.7 12.3 73 2.7 E 22 26 12 14 1016.3 1016.2 0.0
26/05:00am 17.1 14.0 12.2 73 2.7 E 20 24 11 13 1016.3 1016.2 0.0
26/04:30am 17.1 14.1 11.8 71 2.9 ESE 19 22 10 12 1016.4 1016.3 0.0
26/04:00am 17.0 13.4 11.7 71 2.9 ESE 22 26 12 14 1016.3 1016.2 0.0
26/03:30am 17.2 12.9 11.9 71 2.9 E 26 30 14 16 1016.0 1015.9 0.0
26/03:00am 17.4 12.7 12.1 71 2.9 E 28 30 15 16 1016.1 1016.0 0.0
26/02:30am 17.6 13.1 12.5 72 2.8 E 28 33 15 18 1016.2 1016.1 0.0
26/02:00am 17.5 12.7 12.8 74 2.6 E 30 35 16 19 1016.4 1016.3 0.0
26/01:30am 17.6 12.5 13.1 75 2.5 ESE 32 35 17 19 1016.8 1016.7 0.0
26/01:00am 17.6 12.2 12.9 74 2.6 ESE 33 39 18 21 1017.0 1016.9 0.0
26/12:30am 18.0 12.5 13.5 75 2.5 ESE 35 41 19 22 1017.3 1017.2 0.0
26/12:00am 18.2 13.0 13.5 74 2.7 ESE 33 43 18 23 1017.6 1017.5 0.0
 
Date/Time
WST
Temp
°C
App
Temp
°C
Dew
Point
°C
Rel
Hum
%
Delta-T
°C
Wind Press
QNH
hPa
Press
MSL
hPa
Rain since
9am
mm
Dir  Spd
km/h
Gust
km/h
Spd
kts
Gust
kts
25/11:30pm 18.4 13.4 13.9 75 2.6 ESE 33 43 18 23 1017.9 1017.8 0.0
25/11:00pm 18.4 12.2 13.7 74 2.7 ESE 39 44 21 24 1017.8 1017.7 0.0
25/10:30pm 18.4 12.1 13.5 73 2.8 ESE 39 48 21 26 1017.8 1017.7 0.0
25/10:00pm 18.7 13.0 14.2 75 2.6 ESE 37 44 20 24 1018.0 1017.9 0.0
25/09:30pm 18.6 12.4 13.7 73 2.8 ESE 39 50 21 27 1018.1 1018.0 0.0
25/09:00pm 18.7 13.0 14.2 75 2.6 SE 37 50 20 27 1018.2 1018.1 0.0
25/08:30pm 18.6 12.4 13.9 74 2.7 SE 39 48 21 26 1018.0 1017.9 0.0
25/08:00pm 18.5 12.2 13.6 73 2.8 SE 39 52 21 28 1017.8 1017.7 0.0
25/07:30pm 18.9 12.9 14.4 75 2.6 SE 39 54 21 29 1017.8 1017.7 0.0
25/07:00pm 18.9 12.6 13.5 71 3.1 SE 39 48 21 26 1017.8 1017.7 0.0
25/06:30pm 19.1 12.9 13.7 71 3.1 SE 39 48 21 26 1017.6 1017.5 0.0
25/06:00pm 19.5 13.0 13.9 70 3.2 SE 41 50 22 27 1017.3 1017.2 0.0
25/05:30pm 20.0 14.0 13.2 65 3.9 SE 37 48 20 26 1017.2 1017.1 0.0
25/05:00pm 20.5 14.1 13.2 63 4.2 SE 39 50 21 27 1017.1 1017.0 0.0
25/04:30pm 20.5 13.9 12.7 61 4.4 SE 39 48 21 26 1017.2 1017.1 0.0
25/04:00pm 20.8 14.7 13.0 61 4.4 SE 37 50 20 27 1017.4 1017.3 0.0
25/03:30pm 21.4 15.3 13.1 59 4.7 SE 37 48 20 26 1017.5 1017.4 0.0

Other formats

Comma delimited format used in spreadsheet applications
http://www.bom.gov.au/fwo/IDW60801/IDW60801.94601.axf

JavaScript Object Notation format (JSON) in row-major order
http://www.bom.gov.au/fwo/IDW60801/IDW60801.94601.json

Data quality

Most of these data are generated automatically and are frequently updated. Quality checks on data are not normally performed. It is possible for incorrect values to appear. Refer to information at About Latest Weather Observations and please check the disclaimer before using these data.